Time;durP1;ratioP1;P1;durP2;ratioP2;P2;SDS_P1;SDS_P2;PMS_P1;PMS_P2;Temp;Humidity;BMP_temperature;BMP_pressure;BME280_temperature;BME280_humidity;BME280_pressure;Samples;Min_cycle;Max_cycle;Signal;HPM_P1;HPM_P2
2023/04/17 00:02:05;;;;;;;13.70;7.50;;;;;;;;;;4997750;28;20034;-83
2023/04/17 00:04:31;;;;;;;21.13;10.40;;;;;;;;;;4996603;28;20458;-83
2023/04/17 00:06:58;;;;;;;20.13;10.88;;;;;;;;;;5000558;28;20037;-83
2023/04/17 00:09:23;;;;;;;20.75;10.13;;;;;;;;;;4999699;28;20031;-83
2023/04/17 00:11:51;;;;;;;19.02;10.02;;;;;;;;;;4993115;28;20482;-84
2023/04/17 00:14:58;;;;;;;16.88;9.93;;;;;;;;;;4999242;28;20406;-83
2023/04/17 00:17:23;;;;;;;16.98;9.18;;;;;;;;;;4995432;28;20022;-84
2023/04/17 00:19:49;;;;;;;15.65;9.27;;;;;;;;;;4997881;28;20045;-83
2023/04/17 00:22:14;;;;;;;16.00;9.23;;;;;;;;;;4993734;28;20026;-84
2023/04/17 00:24:40;;;;;;;21.33;10.10;;;;;;;;;;4995999;28;20030;-84
2023/04/17 00:27:05;;;;;;;18.27;9.45;;;;;;;;;;4995258;28;20026;-83
2023/04/17 00:29:33;;;;;;;20.17;9.20;;;;;;;;;;4998730;28;20109;-84
2023/04/17 00:31:59;;;;;;;15.73;8.90;;;;;;;;;;4993440;28;20035;-83
2023/04/17 00:34:24;;;;;;;15.95;8.88;;;;;;;;;;4995830;28;20052;-83
2023/04/17 00:36:49;;;;;;;15.05;9.07;;;;;;;;;;4994520;28;20053;-84
2023/04/17 00:39:15;;;;;;;17.15;9.57;;;;;;;;;;4993128;28;20037;-83
2023/04/17 00:41:40;;;;;;;15.10;8.43;;;;;;;;;;4992826;28;20033;-83
2023/04/17 00:44:28;;;;;;;19.60;8.85;;;;;;;;;;4996122;28;20041;-84
2023/04/17 00:46:54;;;;;;;17.27;9.07;;;;;;;;;;4995433;28;20018;-83
2023/04/17 00:49:20;;;;;;;14.07;8.63;;;;;;;;;;4994094;28;20062;-84
2023/04/17 00:51:46;;;;;;;16.80;10.00;;;;;;;;;;4995297;28;20046;-83
2023/04/17 00:54:11;;;;;;;16.58;9.60;;;;;;;;;;4990992;28;20038;-83
2023/04/17 00:56:37;;;;;;;16.98;9.30;;;;;;;;;;4992161;28;20097;-83
2023/04/17 00:59:04;;;;;;;16.75;9.60;;;;;;;;;;4981910;28;20030;-83
2023/04/17 01:01:30;;;;;;;15.95;9.05;;;;;;;;;;5011503;28;20040;-83
2023/04/17 01:03:55;;;;;;;19.92;9.40;;;;;;;;;;5001048;28;20026;-83
2023/04/17 01:06:21;;;;;;;13.88;8.68;;;;;;;;;;5010520;28;20101;-83
2023/04/17 01:08:46;;;;;;;17.80;9.30;;;;;;;;;;4995935;28;20053;-83
2023/04/17 01:11:12;;;;;;;15.77;8.70;;;;;;;;;;4995130;28;20022;-84
2023/04/17 01:13:47;;;;;;;15.50;8.50;;;;;;;;;;4996250;28;20625;-84
2023/04/17 01:16:14;;;;;;;14.98;9.07;;;;;;;;;;4996033;28;20057;-83
2023/04/17 01:18:39;;;;;;;18.52;9.38;;;;;;;;;;5019299;28;20006;-84
2023/04/17 01:21:04;;;;;;;13.80;8.90;;;;;;;;;;5012404;28;20021;-83
2023/04/17 01:23:43;;;;;;;16.27;8.60;;;;;;;;;;5023697;28;20301;-84
2023/04/17 01:26:08;;;;;;;15.77;9.43;;;;;;;;;;4997564;28;20156;-84
2023/04/17 01:28:34;;;;;;;14.40;8.55;;;;;;;;;;4990258;28;20066;-84
2023/04/17 01:30:59;;;;;;;16.15;9.07;;;;;;;;;;4995604;28;20084;-84
2023/04/17 01:33:24;;;;;;;15.00;8.43;;;;;;;;;;4997796;28;20026;-83
2023/04/17 01:35:50;;;;;;;18.60;9.25;;;;;;;;;;4992876;28;20394;-83
2023/04/17 01:38:15;;;;;;;14.60;8.80;;;;;;;;;;4997522;28;20054;-83
2023/04/17 01:40:40;;;;;;;13.88;8.55;;;;;;;;;;4988059;28;20364;-84
2023/04/17 01:43:06;;;;;;;18.15;8.35;;;;;;;;;;4991195;28;20026;-84
2023/04/17 01:45:31;;;;;;;17.40;8.55;;;;;;;;;;4996061;28;20242;-83
2023/04/17 01:47:56;;;;;;;12.57;8.65;;;;;;;;;;4996402;28;20049;-83
2023/04/17 01:50:22;;;;;;;14.68;8.90;;;;;;;;;;4990394;28;20081;-82
2023/04/17 01:52:47;;;;;;;14.73;9.05;;;;;;;;;;4994227;28;20041;-83
2023/04/17 01:55:13;;;;;;;14.55;9.23;;;;;;;;;;4999079;28;20022;-83
2023/04/17 01:57:38;;;;;;;16.45;9.02;;;;;;;;;;4991336;28;20026;-83
2023/04/17 02:00:07;;;;;;;14.90;9.05;;;;;;;;;;5010058;28;20049;-82
2023/04/17 02:02:33;;;;;;;16.55;9.00;;;;;;;;;;5017233;28;20396;-83
2023/04/17 02:04:58;;;;;;;17.88;9.70;;;;;;;;;;5007324;28;20026;-83
2023/04/17 02:07:23;;;;;;;16.58;9.20;;;;;;;;;;5001140;28;20388;-84
2023/04/17 02:09:49;;;;;;;18.98;10.73;;;;;;;;;;4998452;28;20036;-82
2023/04/17 02:12:14;;;;;;;18.20;9.70;;;;;;;;;;4990510;28;20030;-82
2023/04/17 02:14:39;;;;;;;15.07;9.27;;;;;;;;;;4997915;28;20025;-83
2023/04/17 02:17:05;;;;;;;14.82;9.23;;;;;;;;;;4997178;28;20430;-83
2023/04/17 02:19:30;;;;;;;17.02;10.05;;;;;;;;;;4994229;28;20028;-84
2023/04/17 02:21:56;;;;;;;18.55;9.48;;;;;;;;;;4996611;28;20422;-82
2023/04/17 02:24:21;;;;;;;17.85;10.02;;;;;;;;;;4996641;28;20026;-81
2023/04/17 02:26:46;;;;;;;16.98;9.27;;;;;;;;;;4997191;28;20023;-83
2023/04/17 02:29:12;;;;;;;19.00;8.70;;;;;;;;;;4996213;28;20080;-83
2023/04/17 02:31:40;;;;;;;19.85;10.25;;;;;;;;;;4997172;28;20022;-82
2023/04/17 02:34:05;;;;;;;15.30;8.77;;;;;;;;;;4997149;28;20528;-83
2023/04/17 02:36:30;;;;;;;16.02;9.35;;;;;;;;;;4988770;28;20034;-83
2023/04/17 02:38:56;;;;;;;16.58;9.10;;;;;;;;;;5003587;28;20037;-83
2023/04/17 02:41:21;;;;;;;14.98;8.23;;;;;;;;;;4994251;28;20026;-83
2023/04/17 02:43:46;;;;;;;16.85;8.95;;;;;;;;;;4994375;28;20022;-83
2023/04/17 02:46:12;;;;;;;15.77;8.85;;;;;;;;;;4996427;28;20096;-84
2023/04/17 02:48:37;;;;;;;17.92;9.40;;;;;;;;;;5013773;28;20466;-82
2023/04/17 02:51:03;;;;;;;17.65;8.98;;;;;;;;;;4993708;28;20033;-84
2023/04/17 02:53:28;;;;;;;17.52;9.23;;;;;;;;;;4995884;28;20031;-84
2023/04/17 02:55:53;;;;;;;19.10;9.27;;;;;;;;;;5010232;28;20030;-82
2023/04/17 02:58:19;;;;;;;16.85;9.70;;;;;;;;;;5020952;28;20493;-84
2023/04/17 03:00:45;;;;;;;19.60;10.05;;;;;;;;;;5013279;28;20030;-83
2023/04/17 03:03:10;;;;;;;19.00;9.95;;;;;;;;;;5008223;28;20036;-83
2023/04/17 03:05:36;;;;;;;16.95;9.02;;;;;;;;;;5025983;28;20022;-82
2023/04/17 03:08:01;;;;;;;16.95;9.25;;;;;;;;;;5026850;28;20022;-84
2023/04/17 03:10:26;;;;;;;14.98;9.40;;;;;;;;;;5016983;28;20113;-82
2023/04/17 03:12:52;;;;;;;15.63;9.00;;;;;;;;;;5011949;28;20057;-84
2023/04/17 03:15:17;;;;;;;18.27;9.57;;;;;;;;;;5016423;28;20026;-84
2023/04/17 03:17:43;;;;;;;15.93;9.45;;;;;;;;;;5005262;28;20410;-83
2023/04/17 03:20:08;;;;;;;17.15;9.20;;;;;;;;;;5010776;28;20033;-84
2023/04/17 03:22:34;;;;;;;16.83;9.90;;;;;;;;;;5004253;28;20498;-83
2023/04/17 03:24:59;;;;;;;17.23;9.35;;;;;;;;;;5013535;28;20022;-84
2023/04/17 03:27:25;;;;;;;14.80;9.32;;;;;;;;;;5002559;28;20085;-83
2023/04/17 03:29:51;;;;;;;20.38;9.70;;;;;;;;;;4998021;28;20038;-84
2023/04/17 03:32:17;;;;;;;17.75;9.80;;;;;;;;;;5002956;28;20033;-84
2023/04/17 03:34:42;;;;;;;15.88;9.65;;;;;;;;;;5002058;28;20561;-83
2023/04/17 03:37:07;;;;;;;14.85;8.82;;;;;;;;;;5001483;28;20034;-84
2023/04/17 03:39:33;;;;;;;19.02;9.55;;;;;;;;;;5010222;28;20115;-84
2023/04/17 03:41:58;;;;;;;19.00;9.48;;;;;;;;;;4996776;28;20054;-84
2023/04/17 03:51:08;;;;;;;18.77;9.10;;;;;;;;;;4986319;28;20065;-84
2023/04/17 03:53:33;;;;;;;16.27;9.27;;;;;;;;;;5016141;28;20414;-83
2023/04/17 03:55:58;;;;;;;17.60;9.43;;;;;;;;;;5012559;28;20037;-84
2023/04/17 03:58:24;;;;;;;21.92;9.45;;;;;;;;;;5008111;28;20031;-84
2023/04/17 04:00:54;;;;;;;18.83;9.68;;;;;;;;;;4997040;28;20030;-84
2023/04/17 04:03:19;;;;;;;18.70;9.48;;;;;;;;;;5018188;28;20087;-83
2023/04/17 04:05:45;;;;;;;19.15;8.88;;;;;;;;;;5017274;28;20549;-83
2023/04/17 04:08:10;;;;;;;18.40;8.88;;;;;;;;;;5017560;28;20045;-83
2023/04/17 04:10:35;;;;;;;16.00;8.60;;;;;;;;;;4997340;28;20053;-83
2023/04/17 04:13:01;;;;;;;16.00;9.45;;;;;;;;;;4995768;28;20021;-83
2023/04/17 04:15:26;;;;;;;15.48;9.05;;;;;;;;;;5004789;28;20089;-83
2023/04/17 04:17:51;;;;;;;16.88;9.70;;;;;;;;;;5004690;28;20034;-83
2023/04/17 04:20:17;;;;;;;19.00;9.27;;;;;;;;;;5001364;28;20026;-83
2023/04/17 04:22:43;;;;;;;18.58;9.35;;;;;;;;;;5006353;28;20021;-83
2023/04/17 04:25:09;;;;;;;15.32;8.80;;;;;;;;;;5014807;28;20229;-84
2023/04/17 04:27:34;;;;;;;16.67;9.35;;;;;;;;;;5010457;28;20030;-84
2023/04/17 04:30:00;;;;;;;16.52;8.50;;;;;;;;;;5001555;28;20044;-83
2023/04/17 04:32:26;;;;;;;18.48;9.23;;;;;;;;;;4999508;28;20021;-82
2023/04/17 04:34:55;;;;;;;15.55;8.40;;;;;;;;;;5004835;28;20025;-83
2023/04/17 04:37:28;;;;;;;20.55;9.07;;;;;;;;;;5011831;28;20026;-84
2023/04/17 04:40:00;;;;;;;13.77;8.40;;;;;;;;;;5032130;28;20026;-83
2023/04/17 04:42:29;;;;;;;17.45;8.77;;;;;;;;;;5004260;28;20027;-83
2023/04/17 04:44:54;;;;;;;19.92;9.70;;;;;;;;;;5005045;28;20111;-84
2023/04/17 04:47:20;;;;;;;14.95;9.23;;;;;;;;;;5014144;28;20040;-84
2023/04/17 04:49:46;;;;;;;16.65;9.43;;;;;;;;;;5003554;28;20076;-84
2023/04/17 04:52:11;;;;;;;15.20;8.90;;;;;;;;;;4999576;28;20023;-84
2023/04/17 04:54:36;;;;;;;17.77;9.98;;;;;;;;;;5037639;28;20106;-82
2023/04/17 04:57:02;;;;;;;17.48;8.95;;;;;;;;;;5010308;28;20516;-84
2023/04/17 04:59:27;;;;;;;15.90;9.40;;;;;;;;;;5006863;28;20057;-83
2023/04/17 05:01:52;;;;;;;19.15;9.75;;;;;;;;;;5001977;28;20072;-85
2023/04/17 05:04:18;;;;;;;18.35;9.48;;;;;;;;;;5001845;28;20094;-85
2023/04/17 05:06:43;;;;;;;19.35;9.80;;;;;;;;;;5009169;28;20044;-84
2023/04/17 05:09:09;;;;;;;16.20;9.30;;;;;;;;;;5003902;28;20047;-85
2023/04/17 05:11:34;;;;;;;16.65;9.27;;;;;;;;;;5000004;28;20023;-83
2023/04/17 05:13:59;;;;;;;16.95;8.55;;;;;;;;;;4996640;28;20030;-82
2023/04/17 05:16:25;;;;;;;17.38;10.18;;;;;;;;;;5003010;28;20027;-83
2023/04/17 05:18:51;;;;;;;18.15;9.45;;;;;;;;;;5012323;28;20026;-83
2023/04/17 05:21:16;;;;;;;14.65;8.15;;;;;;;;;;5019696;28;20026;-83
2023/04/17 05:23:42;;;;;;;15.90;8.70;;;;;;;;;;5002639;28;20061;-85
2023/04/17 05:26:07;;;;;;;17.60;10.43;;;;;;;;;;5018286;28;20032;-82
2023/04/17 05:28:34;;;;;;;20.77;9.50;;;;;;;;;;5016450;28;20025;-82
2023/04/17 05:30:59;;;;;;;17.55;9.70;;;;;;;;;;5004488;28;20041;-82
2023/04/17 05:33:25;;;;;;;18.00;10.10;;;;;;;;;;4989658;28;20034;-83
2023/04/17 05:35:50;;;;;;;14.57;9.13;;;;;;;;;;5002375;28;20034;-84
2023/04/17 05:38:16;;;;;;;16.85;8.50;;;;;;;;;;5004781;28;20030;-83
2023/04/17 05:40:41;;;;;;;15.82;8.77;;;;;;;;;;4999517;28;20109;-85
2023/04/17 05:43:11;;;;;;;16.65;7.93;;;;;;;;;;4997114;28;20479;-85
2023/04/17 05:45:36;;;;;;;14.98;9.30;;;;;;;;;;5007805;28;20033;-86
2023/04/17 05:48:02;;;;;;;15.13;8.02;;;;;;;;;;5008094;28;20044;-86
2023/04/17 05:50:28;;;;;;;19.88;8.90;;;;;;;;;;4998491;28;20026;-85
2023/04/17 05:52:54;;;;;;;18.40;9.60;;;;;;;;;;5009191;28;20105;-84
2023/04/17 05:55:19;;;;;;;19.05;8.80;;;;;;;;;;5006074;28;20071;-87
2023/04/17 05:57:45;;;;;;;16.30;9.75;;;;;;;;;;5004562;28;20038;-88
2023/04/17 06:00:12;;;;;;;18.00;8.65;;;;;;;;;;5010381;28;20049;-85
2023/04/17 06:02:39;;;;;;;19.48;9.40;;;;;;;;;;5003664;28;20030;-86
2023/04/17 06:05:05;;;;;;;16.25;9.48;;;;;;;;;;5011968;28;20027;-89
2023/04/17 06:07:32;;;;;;;14.82;8.57;;;;;;;;;;5008252;28;20032;-85
2023/04/17 06:09:57;;;;;;;18.63;8.77;;;;;;;;;;5006602;28;20738;-85
2023/04/17 06:12:23;;;;;;;17.30;8.02;;;;;;;;;;4998011;28;20093;-84
2023/04/17 06:14:48;;;;;;;18.08;8.95;;;;;;;;;;5007587;28;20364;-86
2023/04/17 06:17:14;;;;;;;14.80;8.32;;;;;;;;;;5004558;28;20097;-87
2023/04/17 06:19:39;;;;;;;16.75;8.82;;;;;;;;;;5001504;28;20034;-87
2023/04/17 06:22:05;;;;;;;22.05;8.95;;;;;;;;;;4997081;28;20070;-86
2023/04/17 06:24:30;;;;;;;20.05;10.05;;;;;;;;;;5019283;28;20054;-82
2023/04/17 06:26:56;;;;;;;16.85;8.77;;;;;;;;;;5014958;28;20022;-84
2023/04/17 06:29:22;;;;;;;24.05;10.57;;;;;;;;;;5013958;28;20079;-84
2023/04/17 06:31:47;;;;;;;18.23;9.68;;;;;;;;;;4999383;28;20104;-87
2023/04/17 06:34:12;;;;;;;14.98;8.25;;;;;;;;;;4995816;28;20082;-85
2023/04/17 06:36:38;;;;;;;18.42;8.73;;;;;;;;;;5003518;28;20041;-86
2023/04/17 06:39:03;;;;;;;23.52;10.63;;;;;;;;;;4996862;28;20030;-88
2023/04/17 06:41:29;;;;;;;15.05;8.52;;;;;;;;;;4994056;28;20541;-88
2023/04/17 06:43:54;;;;;;;22.52;9.70;;;;;;;;;;4997631;28;20026;-86
2023/04/17 06:46:21;;;;;;;19.20;9.52;;;;;;;;;;4997647;28;20026;-86
2023/04/17 06:48:48;;;;;;;15.75;8.90;;;;;;;;;;4997275;28;20049;-84
2023/04/17 06:51:13;;;;;;;15.02;9.15;;;;;;;;;;4994952;28;20042;-85
2023/04/17 06:53:39;;;;;;;18.50;8.55;;;;;;;;;;4996833;28;20037;-87
2023/04/17 06:56:04;;;;;;;16.60;9.35;;;;;;;;;;5007481;28;20026;-86
2023/04/17 06:58:30;;;;;;;14.50;8.55;;;;;;;;;;4998833;28;20486;-85
2023/04/17 07:00:55;;;;;;;18.02;9.23;;;;;;;;;;5000041;28;20033;-87
2023/04/17 07:03:21;;;;;;;16.70;8.38;;;;;;;;;;5002967;28;20029;-86
2023/04/17 07:05:47;;;;;;;16.52;8.35;;;;;;;;;;5011299;28;20026;-84
2023/04/17 07:08:14;;;;;;;19.05;8.18;;;;;;;;;;4990342;28;20037;-87
2023/04/17 07:10:44;;;;;;;21.15;9.82;;;;;;;;;;4995372;28;20065;-86
2023/04/17 07:13:10;;;;;;;17.17;9.50;;;;;;;;;;5000237;28;20041;-85
2023/04/17 07:15:37;;;;;;;17.25;9.10;;;;;;;;;;5002803;28;20034;-87
2023/04/17 07:18:12;;;;;;;20.15;9.00;;;;;;;;;;5004976;28;20022;-87
2023/04/17 07:20:37;;;;;;;16.23;8.50;;;;;;;;;;5001310;28;20026;-87
2023/04/17 07:23:03;;;;;;;17.85;9.30;;;;;;;;;;5003121;28;20015;-84
2023/04/17 07:25:30;;;;;;;15.10;9.07;;;;;;;;;;5019408;28;20034;-86
2023/04/17 07:27:56;;;;;;;18.35;9.57;;;;;;;;;;5007514;28;20501;-87
2023/04/17 07:30:21;;;;;;;16.42;8.93;;;;;;;;;;5000569;28;20030;-86
2023/04/17 07:32:47;;;;;;;19.50;10.02;;;;;;;;;;4996361;28;20025;-85
2023/04/17 07:35:13;;;;;;;16.50;8.68;;;;;;;;;;5001616;28;20062;-87
2023/04/17 07:37:38;;;;;;;16.77;8.90;;;;;;;;;;4993575;28;20029;-86
2023/04/17 07:40:09;;;;;;;17.63;9.48;;;;;;;;;;4999756;28;20080;-84
2023/04/17 07:42:49;;;;;;;20.88;9.27;;;;;;;;;;4993422;28;20068;-85
2023/04/17 07:45:15;;;;;;;19.40;9.70;;;;;;;;;;5005579;28;20026;-86
2023/04/17 07:47:40;;;;;;;15.95;8.70;;;;;;;;;;5001220;28;20030;-86
2023/04/17 07:50:06;;;;;;;17.95;8.95;;;;;;;;;;5016974;28;20030;-85
2023/04/17 07:52:32;;;;;;;19.10;10.15;;;;;;;;;;5015406;28;20065;-85
2023/04/17 07:54:57;;;;;;;17.60;9.05;;;;;;;;;;5017800;28;20018;-86
2023/04/17 07:57:25;;;;;;;15.95;8.63;;;;;;;;;;5017360;28;20022;-85
2023/04/17 07:59:51;;;;;;;16.05;9.55;;;;;;;;;;5015128;28;20075;-85
2023/04/17 08:02:17;;;;;;;13.82;7.18;;;;;;;;;;4998578;28;20053;-85
2023/04/17 08:04:46;;;;;;;19.10;8.57;;;;;;;;;;4992559;28;20254;-87
2023/04/17 08:07:11;;;;;;;14.63;8.70;;;;;;;;;;4996088;28;20033;-87
2023/04/17 08:09:38;;;;;;;16.45;8.15;;;;;;;;;;4994845;28;20033;-86
2023/04/17 08:12:04;;;;;;;16.98;8.90;;;;;;;;;;5002773;28;20057;-84
2023/04/17 08:14:30;;;;;;;15.88;8.70;;;;;;;;;;5001382;28;20029;-85
2023/04/17 08:16:55;;;;;;;15.10;8.63;;;;;;;;;;4996171;28;20058;-85
2023/04/17 08:19:21;;;;;;;15.60;8.75;;;;;;;;;;4994259;28;20031;-85
2023/04/17 08:21:52;;;;;;;15.13;8.75;;;;;;;;;;4996626;28;20038;-86
2023/04/17 08:24:17;;;;;;;16.13;7.63;;;;;;;;;;5022223;28;20057;-86
2023/04/17 08:26:57;;;;;;;15.30;7.45;;;;;;;;;;5022823;28;20037;-87
2023/04/17 08:29:28;;;;;;;14.40;8.13;;;;;;;;;;5003244;28;20165;-86
2023/04/17 08:31:54;;;;;;;14.20;7.33;;;;;;;;;;4991451;28;20069;-86
2023/04/17 08:34:20;;;;;;;11.40;6.70;;;;;;;;;;5008455;28;20092;-85
2023/04/17 08:36:46;;;;;;;14.02;7.30;;;;;;;;;;4984915;28;20026;-86
2023/04/17 08:39:13;;;;;;;14.55;8.27;;;;;;;;;;4997737;28;20121;-85
2023/04/17 08:41:44;;;;;;;13.00;7.50;;;;;;;;;;4996457;28;20030;-87
2023/04/17 08:44:10;;;;;;;13.43;7.88;;;;;;;;;;5005570;28;20021;-87
2023/04/17 08:46:36;;;;;;;16.38;7.45;;;;;;;;;;5007414;28;20030;-86
2023/04/17 08:49:04;;;;;;;10.98;6.38;;;;;;;;;;5000628;28;20030;-86
2023/04/17 08:51:30;;;;;;;9.43;6.38;;;;;;;;;;4999951;28;20089;-87
2023/04/17 08:53:55;;;;;;;10.63;6.38;;;;;;;;;;5002412;28;20057;-86
2023/04/17 08:56:21;;;;;;;13.20;5.60;;;;;;;;;;4999839;28;20030;-86
2023/04/17 08:58:46;;;;;;;9.00;5.75;;;;;;;;;;5000715;28;20058;-87
2023/04/17 09:01:18;;;;;;;12.75;6.25;;;;;;;;;;4997730;28;20163;-85
2023/04/17 09:03:48;;;;;;;9.35;5.47;;;;;;;;;;5003908;28;20121;-85
2023/04/17 09:06:14;;;;;;;9.50;5.65;;;;;;;;;;5009135;28;20031;-86
2023/04/17 09:09:00;;;;;;;12.35;5.00;;;;;;;;;;4997587;28;20023;-86
2023/04/17 09:11:26;;;;;;;11.50;5.05;;;;;;;;;;4975782;28;20018;-86
2023/04/17 09:13:53;;;;;;;8.18;5.05;;;;;;;;;;4983823;28;20040;-87
2023/04/17 09:16:19;;;;;;;9.52;5.70;;;;;;;;;;5026874;28;20030;-84
2023/04/17 09:18:45;;;;;;;7.55;4.50;;;;;;;;;;5002696;28;20049;-87
2023/04/17 09:21:15;;;;;;;7.45;4.35;;;;;;;;;;4998984;28;20030;-86
2023/04/17 09:23:48;;;;;;;7.57;4.15;;;;;;;;;;5000030;28;20030;-86
2023/04/17 09:26:16;;;;;;;7.97;4.80;;;;;;;;;;4996617;28;20494;-85
2023/04/17 09:29:00;;;;;;;6.55;4.65;;;;;;;;;;4998033;28;20034;-85
2023/04/17 09:31:29;;;;;;;6.10;4.07;;;;;;;;;;4998516;28;20042;-85
2023/04/17 09:34:12;;;;;;;7.30;4.18;;;;;;;;;;5000460;28;20518;-86
2023/04/17 09:36:40;;;;;;;6.57;3.97;;;;;;;;;;5010900;28;20054;-86
2023/04/17 09:39:23;;;;;;;8.82;4.50;;;;;;;;;;5014952;28;20375;-85
2023/04/17 09:41:49;;;;;;;6.93;4.03;;;;;;;;;;4996559;28;20121;-84
2023/04/17 09:44:25;;;;;;;5.32;3.90;;;;;;;;;;4986047;28;20023;-84
2023/04/17 09:46:52;;;;;;;8.00;4.68;;;;;;;;;;4987301;28;20057;-85
2023/04/17 09:49:48;;;;;;;3.90;3.30;;;;;;;;;;5020280;28;20196;-85
2023/04/17 09:52:13;;;;;;;6.15;3.85;;;;;;;;;;5002728;28;20034;-83
2023/04/17 09:54:39;;;;;;;5.18;3.35;;;;;;;;;;5007575;28;20026;-84
2023/04/17 09:57:07;;;;;;;6.82;4.38;;;;;;;;;;5012485;28;20058;-85
2023/04/17 09:59:33;;;;;;;5.95;3.90;;;;;;;;;;5010209;28;20057;-84
2023/04/17 10:02:01;;;;;;;8.13;3.85;;;;;;;;;;4997931;28;20034;-84
2023/04/17 10:04:29;;;;;;;5.43;3.65;;;;;;;;;;4998827;28;20026;-85
2023/04/17 10:06:56;;;;;;;6.20;3.47;;;;;;;;;;4978312;28;20060;-84
2023/04/17 10:09:22;;;;;;;8.23;4.57;;;;;;;;;;4999263;28;20137;-83
2023/04/17 10:11:48;;;;;;;5.85;4.10;;;;;;;;;;4993890;28;20117;-84
2023/04/17 10:14:24;;;;;;;7.20;3.95;;;;;;;;;;5007481;28;20022;-84
2023/04/17 10:16:50;;;;;;;7.55;3.75;;;;;;;;;;5006206;28;20564;-83
2023/04/17 10:19:32;;;;;;;7.25;4.00;;;;;;;;;;5006465;28;20037;-83
2023/04/17 10:22:19;;;;;;;7.72;4.75;;;;;;;;;;4992199;28;20074;-83
2023/04/17 10:24:50;;;;;;;5.88;3.95;;;;;;;;;;5016198;28;20029;-84
2023/04/17 10:27:25;;;;;;;6.80;4.38;;;;;;;;;;5010726;28;20026;-83
2023/04/17 10:29:55;;;;;;;8.77;3.90;;;;;;;;;;4994844;28;20056;-83
2023/04/17 10:32:25;;;;;;;5.47;4.25;;;;;;;;;;5002812;28;20534;-83
2023/04/17 10:34:52;;;;;;;7.68;3.85;;;;;;;;;;5012567;28;20398;-83
2023/04/17 10:37:18;;;;;;;6.88;4.95;;;;;;;;;;5009154;28;20028;-83
2023/04/17 10:39:58;;;;;;;5.68;4.07;;;;;;;;;;4994472;28;20038;-83
2023/04/17 10:42:24;;;;;;;8.45;4.75;;;;;;;;;;4990946;28;21057;-83
2023/04/17 10:44:54;;;;;;;10.02;4.85;;;;;;;;;;4999515;28;20026;-82
2023/04/17 10:47:21;;;;;;;7.05;4.10;;;;;;;;;;4996814;28;20058;-83
2023/04/17 10:49:54;;;;;;;6.68;4.15;;;;;;;;;;4997829;28;20117;-84
2023/04/17 10:52:40;;;;;;;6.90;4.18;;;;;;;;;;4999690;28;20109;-85
2023/04/17 10:55:23;;;;;;;6.05;3.72;;;;;;;;;;5003081;28;20022;-86
2023/04/17 10:57:53;;;;;;;6.15;4.18;;;;;;;;;;4986417;28;20026;-82
2023/04/17 11:00:28;;;;;;;8.20;5.18;;;;;;;;;;4997224;28;20037;-83
2023/04/17 11:02:54;;;;;;;5.00;3.78;;;;;;;;;;5007656;28;20068;-84
2023/04/17 11:05:21;;;;;;;5.50;4.18;;;;;;;;;;4997063;28;20034;-85
2023/04/17 11:07:50;;;;;;;6.10;4.40;;;;;;;;;;4998018;28;20018;-86
2023/04/17 11:10:20;;;;;;;6.78;4.50;;;;;;;;;;5006179;28;20054;-86
2023/04/17 11:12:57;;;;;;;6.38;4.15;;;;;;;;;;5000781;28;20030;-86
2023/04/17 11:15:30;;;;;;;7.18;4.32;;;;;;;;;;5001026;28;20030;-86
2023/04/17 11:17:56;;;;;;;6.80;4.43;;;;;;;;;;5003818;28;20022;-86
2023/04/17 11:20:34;;;;;;;6.60;3.83;;;;;;;;;;4993692;28;20054;-86
2023/04/17 11:23:04;;;;;;;6.63;4.47;;;;;;;;;;4994695;28;20490;-85
2023/04/17 11:25:33;;;;;;;9.25;5.38;;;;;;;;;;5023530;28;20041;-84
2023/04/17 11:28:00;;;;;;;6.07;4.22;;;;;;;;;;5037887;28;20018;-85
2023/04/17 11:30:34;;;;;;;6.70;3.88;;;;;;;;;;5011538;28;20116;-84
2023/04/17 11:33:11;;;;;;;8.25;3.90;;;;;;;;;;5029047;28;20014;-86
2023/04/17 11:35:48;;;;;;;7.35;3.95;;;;;;;;;;5018001;28;20018;-84
2023/04/17 11:38:21;;;;;;;6.18;4.43;;;;;;;;;;5024807;28;20025;-86
2023/04/17 11:40:52;;;;;;;7.32;4.78;;;;;;;;;;5013108;28;20034;-88
2023/04/17 11:43:20;;;;;;;6.00;3.90;;;;;;;;;;5003662;28;20478;-87
2023/04/17 11:45:48;;;;;;;6.57;4.25;;;;;;;;;;5021766;28;20026;-85
2023/04/17 11:48:15;;;;;;;5.40;3.75;;;;;;;;;;5015653;28;20026;-87
2023/04/17 11:50:52;;;;;;;8.98;4.43;;;;;;;;;;5007924;28;20513;-88
2023/04/17 11:53:18;;;;;;;6.28;4.30;;;;;;;;;;5004478;28;20037;-88
2023/04/17 11:56:02;;;;;;;6.25;3.70;;;;;;;;;;5010661;28;20079;-86
2023/04/17 11:58:28;;;;;;;10.07;4.60;;;;;;;;;;5000343;28;20062;-87
2023/04/17 12:01:05;;;;;;;9.02;5.55;;;;;;;;;;4996811;28;20033;-87
2023/04/17 12:03:36;;;;;;;10.38;5.65;;;;;;;;;;4995592;28;20050;-87
2023/04/17 12:06:03;;;;;;;7.78;4.82;;;;;;;;;;4996289;28;20413;-88
2023/04/17 12:08:29;;;;;;;7.30;4.05;;;;;;;;;;4995788;28;20029;-87
2023/04/17 12:10:56;;;;;;;5.38;3.88;;;;;;;;;;4998376;28;20030;-86
2023/04/17 12:13:22;;;;;;;5.60;3.75;;;;;;;;;;4998416;28;20124;-88
2023/04/17 12:15:48;;;;;;;6.10;3.60;;;;;;;;;;5004661;28;20018;-86
2023/04/17 12:18:14;;;;;;;7.00;4.38;;;;;;;;;;5005666;28;20030;-86
2023/04/17 12:20:40;;;;;;;6.25;4.28;;;;;;;;;;4991128;28;20491;-87
2023/04/17 12:23:05;;;;;;;6.88;3.78;;;;;;;;;;4994037;28;20062;-87
2023/04/17 12:25:36;;;;;;;6.65;4.07;;;;;;;;;;5016318;28;20045;-86
2023/04/17 12:28:05;;;;;;;6.03;3.78;;;;;;;;;;5017857;28;20080;-86
2023/04/17 12:30:34;;;;;;;7.25;4.07;;;;;;;;;;5025964;28;20450;-86
2023/04/17 12:33:02;;;;;;;6.95;3.70;;;;;;;;;;5002611;28;20033;-85
2023/04/17 12:35:30;;;;;;;4.20;2.85;;;;;;;;;;5016526;28;20045;-86
2023/04/17 12:37:56;;;;;;;6.00;3.70;;;;;;;;;;5013986;28;20119;-85
2023/04/17 12:40:31;;;;;;;5.25;4.00;;;;;;;;;;5003158;28;20034;-86
2023/04/17 12:42:57;;;;;;;4.95;3.53;;;;;;;;;;4978919;28;20118;-83
2023/04/17 12:45:32;;;;;;;5.50;3.67;;;;;;;;;;5014059;28;20022;-82
2023/04/17 12:47:58;;;;;;;5.70;3.15;;;;;;;;;;5021917;28;20050;-82
2023/04/17 12:50:24;;;;;;;4.18;3.05;;;;;;;;;;4993381;28;20058;-83
2023/04/17 12:52:53;;;;;;;5.03;3.20;;;;;;;;;;4998838;28;20029;-83
2023/04/17 12:55:19;;;;;;;5.95;3.15;;;;;;;;;;5013641;28;20033;-83
2023/04/17 12:57:45;;;;;;;4.70;3.38;;;;;;;;;;5001140;28;20030;-83
2023/04/17 13:00:14;;;;;;;5.07;3.72;;;;;;;;;;4994013;28;20201;-84
2023/04/17 13:02:39;;;;;;;5.43;3.80;;;;;;;;;;4992609;28;20552;-83
2023/04/17 13:05:06;;;;;;;6.05;3.80;;;;;;;;;;4999959;28;20019;-85
2023/04/17 13:07:32;;;;;;;8.85;3.72;;;;;;;;;;5003875;28;20022;-85
2023/04/17 13:09:57;;;;;;;5.55;3.75;;;;;;;;;;5003830;28;20050;-84
2023/04/17 13:12:23;;;;;;;5.40;3.95;;;;;;;;;;5003507;28;20094;-85
2023/04/17 13:14:49;;;;;;;4.45;3.40;;;;;;;;;;5001367;28;20636;-83
2023/04/17 13:17:15;;;;;;;4.78;3.25;;;;;;;;;;4998324;28;20041;-84
2023/04/17 13:19:46;;;;;;;5.47;3.15;;;;;;;;;;5003862;28;20505;-83
2023/04/17 13:22:16;;;;;;;5.47;3.47;;;;;;;;;;5000474;28;20031;-84
2023/04/17 13:24:45;;;;;;;5.45;3.55;;;;;;;;;;5006183;28;20061;-83
2023/04/17 13:27:17;;;;;;;6.18;3.38;;;;;;;;;;5009416;28;20461;-83
2023/04/17 13:29:50;;;;;;;6.00;3.60;;;;;;;;;;5020543;28;20028;-84
2023/04/17 13:32:24;;;;;;;4.38;3.25;;;;;;;;;;4995861;28;20090;-83
2023/04/17 13:34:50;;;;;;;5.90;3.28;;;;;;;;;;5010553;28;20022;-84
2023/04/17 13:37:15;;;;;;;5.70;3.55;;;;;;;;;;5013882;28;20021;-84
2023/04/17 13:39:48;;;;;;;6.13;3.67;;;;;;;;;;5017986;28;20026;-83
2023/04/17 13:42:49;;;;;;;3.75;3.00;;;;;;;;;;5003043;28;20026;-84
2023/04/17 13:45:22;;;;;;;4.75;3.00;;;;;;;;;;5015997;28;20108;-82
2023/04/17 13:47:51;;;;;;;5.43;3.58;;;;;;;;;;5024860;28;20097;-84
2023/04/17 13:50:34;;;;;;;6.32;3.45;;;;;;;;;;5018233;28;20030;-82
2023/04/17 13:53:24;;;;;;;4.47;2.80;;;;;;;;;;5005196;28;20105;-83
2023/04/17 13:55:50;;;;;;;4.60;3.33;;;;;;;;;;5020998;28;20544;-83
2023/04/17 13:58:24;;;;;;;4.35;3.15;;;;;;;;;;5010870;28;20379;-84
2023/04/17 14:01:02;;;;;;;4.65;3.47;;;;;;;;;;5011445;28;20470;-84
2023/04/17 14:03:39;;;;;;;3.47;2.67;;;;;;;;;;5005582;28;20046;-84
2023/04/17 14:06:05;;;;;;;6.45;3.17;;;;;;;;;;5016674;28;20105;-82
2023/04/17 14:08:31;;;;;;;3.38;2.60;;;;;;;;;;5020218;28;20037;-82
2023/04/17 14:10:56;;;;;;;4.15;3.13;;;;;;;;;;5007605;28;20033;-83
2023/04/17 14:13:22;;;;;;;4.63;2.70;;;;;;;;;;5008295;28;20112;-84
2023/04/17 14:15:53;;;;;;;5.30;2.45;;;;;;;;;;5020355;28;20058;-84
2023/04/17 14:18:19;;;;;;;4.10;2.75;;;;;;;;;;5014799;28;20023;-84
2023/04/17 14:20:52;;;;;;;4.57;3.17;;;;;;;;;;5005951;28;20030;-83
2023/04/17 14:23:17;;;;;;;5.03;2.90;;;;;;;;;;5006602;28;20107;-83
2023/04/17 14:25:43;;;;;;;3.80;2.75;;;;;;;;;;5019528;28;20022;-83
2023/04/17 14:28:09;;;;;;;6.07;2.83;;;;;;;;;;5016639;28;20048;-83
2023/04/17 14:30:34;;;;;;;4.97;3.47;;;;;;;;;;5007317;28;20042;-83
2023/04/17 14:33:09;;;;;;;5.05;3.53;;;;;;;;;;5004859;28;20129;-83
2023/04/17 14:35:34;;;;;;;5.10;3.53;;;;;;;;;;5013827;28;20062;-82
2023/04/17 14:38:03;;;;;;;4.78;3.03;;;;;;;;;;5022198;28;20049;-83
2023/04/17 14:40:29;;;;;;;4.60;2.80;;;;;;;;;;5042792;23;20049;-81
2023/04/17 14:43:07;;;;;;;7.78;3.60;;;;;;;;;;5009491;28;20025;-82
2023/04/17 14:45:40;;;;;;;4.43;3.03;;;;;;;;;;5017603;28;20022;-83